Adriatic Sea — WDB5553 — position and weather

sailwx.info

Track history (hours):
 
Tides and Currents Weather Stations Pressure Air Temp Water Temp Dewpoint Dewpoint Depression Visibility Wind Speed Wind Dir Waves Ship Positions

Adriatic Sea

Owner: Kirby Offshore Marine, LLC, Seattle, WA. More information available from US FCC via Universal Licensing System and Coast Guard Vessel Documentation Center.

Last reported at 2015-May-27 06:05 UTC. Time now 2015-May-29 02:21 UTC.
Position N 38°24' W 123°56'.

Length 42 m; draft 5.3 m.

Type: Tug. MMSI: 366910890.

Date/timePositionNaut miles runAvg speedWind from/ knotsBaromVisibWave heightAir tempDewpointWater temp
2015-May-27 06:05N 38°24' W 123°56'4 7.2
2015-May-27 05:32N 38°21' W 123°53'9 7.4
2015-May-27 04:15N 38°13' W 123°47'6 7.7
2015-May-27 03:32N 38°08' W 123°43'8 7.8
2015-May-27 02:33N 38°02' W 123°38'9 7.7
2015-May-27 01:22N 37°54' W 123°32'22 7.8
2015-May-26 22:29N 37°34' W 123°17'15 7.6
2015-May-26 20:28N 37°22' W 123°08'8 7.9
2015-May-26 19:27N 37°15' W 123°02'7 7.6
2015-May-26 18:30N 37°08' W 122°57'7 7.9
2015-May-26 17:33N 37°02' W 122°53'9 8.1
2015-May-26 16:25N 36°54' W 122°48'7 7.8
2015-May-26 15:33N 36°48' W 122°44'8 7.9
2015-May-26 14:30N 36°40' W 122°40'8 7.8
2015-May-26 13:31N 36°33' W 122°36'7 7.6
2015-May-26 12:32N 36°27' W 122°31'7 7.4
2015-May-26 11:33N 36°20' W 122°27'7 7.5
2015-May-26 10:33N 36°13' W 122°24'8 7.5
2015-May-26 09:33N 36°06' W 122°20'7 7.3
2015-May-26 08:33N 35°60' W 122°16'8 7.7
2015-May-26 07:33N 35°54' W 122°11'8 7.8
2015-May-26 06:28N 35°46' W 122°05'8 7.2
2015-May-26 05:17N 35°39' W 122°00'7 6.8
2015-May-26 04:11N 35°32' W 121°56'213 6.9
2015-May-24 21:24N 33°42' W 118°15'2 0.1
2015-May-24 00:06N 33°44' W 118°16'0 0.0
2015-May-23 20:24N 33°44' W 118°16'0 0.1
2015-May-23 19:30N 33°44' W 118°16'0 0.0
2015-May-23 18:18N 33°44' W 118°16'0 0.0
2015-May-22 00:11N 33°44' W 118°16'0 0.0
2015-May-21 18:05N 33°44' W 118°16'0 0.0
2015-May-20 04:25N 33°44' W 118°16'0 0.0
2015-May-19 21:30N 33°44' W 118°16'0 0.0
2015-May-19 20:27N 33°44' W 118°16'0 0.0
2015-May-19 01:06N 33°44' W 118°16'0 0.0
2015-May-19 00:33N 33°44' W 118°16'0 0.0
2015-May-18 21:24N 33°44' W 118°16'0 0.0
2015-May-18 20:15N 33°44' W 118°16'0 0.0
2015-May-17 23:05N 33°44' W 118°16'0 0.0
2015-May-17 21:32N 33°44' W 118°16'0 0.0
2015-May-17 19:32N 33°44' W 118°16'0 0.0
2015-May-17 18:26N 33°44' W 118°16'0 0.0
2015-May-17 17:32N 33°44' W 118°16'0 0.0
2015-May-17 16:32N 33°44' W 118°16'  
Track history (hours):
 
Tides and Currents Weather Stations Pressure Air Temp Water Temp Dewpoint Dewpoint Depression Visibility Wind Speed Wind Dir Waves Ship Positions

Adriatic Sea

Owner: Kirby Offshore Marine, LLC, Seattle, WA. More information available from US FCC via Universal Licensing System and Coast Guard Vessel Documentation Center.

Last reported at 2015-May-27 06:05 UTC. Time now 2015-May-29 02:21 UTC.
Position N 38°24' W 123°56'.

Length 42 m; draft 5.3 m.

Type: Tug. MMSI: 366910890.

Date/timePositionNaut miles runAvg speedWind from/ knotsBaromVisibWave heightAir tempDewpointWater temp
2015-May-27 06:05N 38°24' W 123°56'4 7.2
2015-May-27 05:32N 38°21' W 123°53'9 7.4
2015-May-27 04:15N 38°13' W 123°47'6 7.7
2015-May-27 03:32N 38°08' W 123°43'8 7.8
2015-May-27 02:33N 38°02' W 123°38'9 7.7
2015-May-27 01:22N 37°54' W 123°32'22 7.8
2015-May-26 22:29N 37°34' W 123°17'15 7.6
2015-May-26 20:28N 37°22' W 123°08'8 7.9
2015-May-26 19:27N 37°15' W 123°02'7 7.6
2015-May-26 18:30N 37°08' W 122°57'7 7.9
2015-May-26 17:33N 37°02' W 122°53'9 8.1
2015-May-26 16:25N 36°54' W 122°48'7 7.8
2015-May-26 15:33N 36°48' W 122°44'8 7.9
2015-May-26 14:30N 36°40' W 122°40'8 7.8
2015-May-26 13:31N 36°33' W 122°36'7 7.6
2015-May-26 12:32N 36°27' W 122°31'7 7.4
2015-May-26 11:33N 36°20' W 122°27'7 7.5
2015-May-26 10:33N 36°13' W 122°24'8 7.5
2015-May-26 09:33N 36°06' W 122°20'7 7.3
2015-May-26 08:33N 35°60' W 122°16'8 7.7
2015-May-26 07:33N 35°54' W 122°11'8 7.8
2015-May-26 06:28N 35°46' W 122°05'8 7.2
2015-May-26 05:17N 35°39' W 122°00'7 6.8
2015-May-26 04:11N 35°32' W 121°56'213 6.9
2015-May-24 21:24N 33°42' W 118°15'2 0.1
2015-May-24 00:06N 33°44' W 118°16'0 0.0
2015-May-23 20:24N 33°44' W 118°16'0 0.1
2015-May-23 19:30N 33°44' W 118°16'0 0.0
2015-May-23 18:18N 33°44' W 118°16'0 0.0
2015-May-22 00:11N 33°44' W 118°16'0 0.0
2015-May-21 18:05N 33°44' W 118°16'0 0.0
2015-May-20 04:25N 33°44' W 118°16'0 0.0
2015-May-19 21:30N 33°44' W 118°16'0 0.0
2015-May-19 20:27N 33°44' W 118°16'0 0.0
2015-May-19 01:06N 33°44' W 118°16'0 0.0
2015-May-19 00:33N 33°44' W 118°16'0 0.0
2015-May-18 21:24N 33°44' W 118°16'0 0.0
2015-May-18 20:15N 33°44' W 118°16'0 0.0
2015-May-17 23:05N 33°44' W 118°16'0 0.0
2015-May-17 21:32N 33°44' W 118°16'0 0.0
2015-May-17 19:32N 33°44' W 118°16'0 0.0
2015-May-17 18:26N 33°44' W 118°16'0 0.0
2015-May-17 17:32N 33°44' W 118°16'0 0.0
2015-May-17 16:32N 33°44' W 118°16'  

Dump ship's entire track history